Time;durP1;ratioP1;P1;durP2;ratioP2;P2;SDS_P1;SDS_P2;PMS_P1;PMS_P2;Temp;Humidity;BMP_temperature;BMP_pressure;BME280_temperature;BME280_humidity;BME280_pressure;Samples;Min_cycle;Max_cycle;Signal;HPM_P1;HPM_P2
2023/05/22 00:00:43;;;;;;;4.97;3.80;;;16.20;99.90;;;;;;5074618;28;20040;-47
2023/05/22 00:03:09;;;;;;;6.63;4.80;;;16.00;99.90;;;;;;5074302;28;20043;-47
2023/05/22 00:05:37;;;;;;;5.32;3.78;;;15.80;99.90;;;;;;5071533;28;20045;-47
2023/05/22 00:08:04;;;;;;;6.20;3.78;;;;;;;;;;5074297;28;20111;-48
2023/05/22 00:10:30;;;;;;;6.78;3.70;;;15.70;99.90;;;;;;5067416;28;20040;-47
2023/05/22 00:12:56;;;;;;;4.68;3.38;;;;;;;;;;5073813;28;20063;-47
2023/05/22 00:15:22;;;;;;;5.20;3.50;;;15.50;99.90;;;;;;5089472;28;20037;-48
2023/05/22 00:17:48;;;;;;;5.35;3.25;;;15.60;99.90;;;;;;5072997;28;20389;-47
2023/05/22 00:20:14;;;;;;;4.78;2.88;;;15.50;99.90;;;;;;5064510;28;20537;-47
2023/05/22 00:22:41;;;;;;;4.65;3.03;;;15.50;99.90;;;;;;5074925;28;20394;-47
2023/05/22 00:25:07;;;;;;;6.20;3.60;;;15.50;99.90;;;;;;5069080;28;20052;-47
2023/05/22 00:27:33;;;;;;;8.27;3.40;;;15.50;99.90;;;;;;5039554;28;20036;-47
2023/05/22 00:29:59;;;;;;;4.55;2.67;;;15.60;99.90;;;;;;5072810;28;20024;-48
2023/05/22 00:32:25;;;;;;;5.30;3.47;;;15.70;99.90;;;;;;5073649;28;20460;-47
2023/05/22 00:34:51;;;;;;;6.20;3.72;;;15.70;99.90;;;;;;5073791;28;20025;-47
2023/05/22 00:37:20;;;;;;;7.72;3.28;;;15.90;99.90;;;;;;5074558;28;20415;-47
2023/05/22 00:39:46;;;;;;;4.57;3.28;;;15.90;99.90;;;;;;5072018;28;20060;-48
2023/05/22 00:42:12;;;;;;;6.10;3.70;;;15.90;99.90;;;;;;5071223;28;20500;-47
2023/05/22 00:44:37;;;;;;;7.40;3.88;;;15.90;99.90;;;;;;5088522;28;20055;-47
2023/05/22 00:47:03;;;;;;;6.13;3.70;;;15.80;99.90;;;;;;5073126;28;20031;-48
2023/05/22 00:49:29;;;;;;;4.72;3.55;;;15.70;99.90;;;;;;5070077;28;20515;-47
2023/05/22 00:51:55;;;;;;;5.18;3.65;;;15.80;99.90;;;;;;5073276;28;20037;-47
2023/05/22 00:54:21;;;;;;;5.72;3.35;;;15.80;99.90;;;;;;5068646;28;20040;-48
2023/05/22 00:56:48;;;;;;;4.93;3.20;;;15.90;99.90;;;;;;5087288;28;20484;-48
2023/05/22 00:59:14;;;;;;;4.70;3.00;;;16.00;99.90;;;;;;5073417;28;20488;-48
2023/05/22 01:01:41;;;;;;;4.63;2.70;;;15.90;99.90;;;;;;5073809;28;20029;-48
2023/05/22 01:04:10;;;;;;;6.07;2.80;;;16.00;99.90;;;;;;5072768;28;20116;-48
2023/05/22 01:06:36;;;;;;;4.72;3.22;;;15.90;99.90;;;;;;5073057;28;20032;-47
2023/05/22 01:09:03;;;;;;;4.20;2.80;;;15.80;99.90;;;;;;5037846;28;20120;-47
2023/05/22 01:11:36;;;;;;;3.53;2.83;;;15.90;99.90;;;;;;5069932;28;20464;-47
2023/05/22 01:14:41;;;;;;;4.55;2.67;;;15.50;99.90;;;;;;5035378;28;20135;-48
2023/05/22 01:17:22;;;;;;;5.35;3.03;;;15.30;99.90;;;;;;5037682;28;20055;-47
2023/05/22 01:20:24;;;;;;;5.45;3.28;;;15.30;99.90;;;;;;5063651;28;20025;-48
2023/05/22 01:23:29;;;;;;;4.22;2.95;;;15.30;99.90;;;;;;5010509;28;20042;-47
2023/05/22 01:26:07;;;;;;;6.55;3.25;;;15.50;99.90;;;;;;4919152;29;20046;-47
2023/05/22 01:28:53;;;;;;;4.55;3.38;;;15.40;99.90;;;;;;4952846;29;20039;-48
2023/05/22 01:31:28;;;;;;;6.10;3.65;;;15.10;99.90;;;;;;4948892;28;20038;-47
2023/05/22 01:33:57;;;;;;;3.70;3.08;;;15.10;99.90;;;;;;4952537;29;20496;-48
2023/05/22 01:36:27;;;;;;;5.95;3.47;;;15.20;99.90;;;;;;4952716;29;20058;-48
2023/05/22 01:38:54;;;;;;;5.60;4.03;;;15.10;99.90;;;;;;4952569;29;20061;-47
2023/05/22 01:41:20;;;;;;;5.07;3.25;;;15.30;99.90;;;;;;4951320;29;20105;-47
2023/05/22 01:43:46;;;;;;;4.50;2.80;;;15.10;99.90;;;;;;4953318;29;20499;-47
2023/05/22 01:46:12;;;;;;;6.78;3.20;;;15.10;99.90;;;;;;4952478;29;20047;-47
2023/05/22 01:48:37;;;;;;;4.85;3.33;;;15.20;99.90;;;;;;4952529;28;20047;-50
2023/05/22 01:51:36;;;;;;;4.50;3.15;;;15.10;99.90;;;;;;4953065;28;20019;-48
2023/05/22 01:54:31;;;;;;;4.95;3.08;;;14.80;99.90;;;;;;4952502;29;20601;-47
2023/05/22 01:57:12;;;;;;;4.03;2.88;;;;;;;;;;4953028;29;20050;-48
2023/05/22 01:59:56;;;;;;;4.47;2.90;;;;;;;;;;5001318;28;20435;-46
2023/05/22 02:02:24;;;;;;;4.38;3.38;;;;;;;;;;5049697;28;20416;-47
2023/05/22 02:04:52;;;;;;;5.72;3.22;;;;;;;;;;5073350;28;20036;-48
2023/05/22 02:07:20;;;;;;;5.05;3.22;;;;;;;;;;5068218;28;20491;-47
2023/05/22 02:09:47;;;;;;;6.32;3.60;;;;;;;;;;5070153;28;20043;-49
2023/05/22 02:12:13;;;;;;;4.88;3.30;;;;;;;;;;5087725;28;20040;-48
2023/05/22 02:14:39;;;;;;;5.03;3.33;;;;;;;;;;5069671;28;20048;-49
2023/05/22 02:17:06;;;;;;;4.35;2.95;;;;;;;;;;5085463;28;20040;-47
2023/05/22 02:19:34;;;;;;;5.63;3.22;;;;;;;;;;5072703;28;20037;-49
2023/05/22 02:22:00;;;;;;;5.55;3.22;;;;;;;;;;5072320;28;20467;-47
2023/05/22 02:24:26;;;;;;;5.78;3.38;;;;;;;;;;5071161;28;20025;-48
2023/05/22 02:26:53;;;;;;;4.40;2.65;;;;;;;;;;5072693;28;20047;-49
2023/05/22 02:29:19;;;;;;;4.10;2.83;;;;;;;;;;5068133;28;20021;-48
2023/05/22 02:31:45;;;;;;;5.18;3.10;;;;;;;;;;5071797;28;20029;-48
2023/05/22 02:34:11;;;;;;;4.50;3.28;;;;;;;;;;5069288;28;20051;-46
2023/05/22 02:36:37;;;;;;;5.40;3.28;;;;;;;;;;5037319;28;20037;-48
2023/05/22 02:39:04;;;;;;;5.03;3.10;;;;;;;;;;5071677;28;20052;-48
2023/05/22 02:41:30;;;;;;;4.45;2.83;;;;;;;;;;5071179;28;20488;-47
2023/05/22 02:43:56;;;;;;;4.70;3.30;;;;;;;;;;5071890;28;20097;-47
2023/05/22 02:46:22;;;;;;;4.13;3.03;;;;;;;;;;5072310;28;20039;-47
2023/05/22 02:48:48;;;;;;;3.53;2.60;;;;;;;;;;5066889;28;20038;-49
2023/05/22 02:51:15;;;;;;;3.88;3.33;;;;;;;;;;5071943;28;20138;-47
2023/05/22 02:53:41;;;;;;;4.15;3.13;;;;;;;;;;5070475;28;20118;-47
2023/05/22 02:56:10;;;;;;;4.40;3.28;;;;;;;;;;5070308;28;20126;-47
2023/05/22 02:58:37;;;;;;;4.53;3.10;;;;;;;;;;5066868;28;20707;-47
2023/05/22 03:01:05;;;;;;;5.30;2.90;;;;;;;;;;5064826;28;20077;-47
2023/05/22 03:03:32;;;;;;;6.55;3.28;;;;;;;;;;5068427;28;20032;-47
2023/05/22 03:06:00;;;;;;;4.80;3.08;;;;;;;;;;5068494;28;20033;-48
2023/05/22 03:08:27;;;;;;;5.15;3.45;;;;;;;;;;5068103;28;20068;-48
2023/05/22 03:10:54;;;;;;;4.47;3.25;;;;;;;;;;5060912;28;20035;-46
2023/05/22 03:13:20;;;;;;;4.60;2.70;;;;;;;;;;5068490;28;20400;-48
2023/05/22 03:15:46;;;;;;;4.47;2.90;;;;;;;;;;5031180;28;20045;-47
2023/05/22 03:18:12;;;;;;;5.43;3.10;;;;;;;;;;5029167;28;20049;-48
2023/05/22 03:20:38;;;;;;;5.05;3.42;;;;;;;;;;5068042;28;20040;-49
2023/05/22 03:23:05;;;;;;;4.82;3.38;;;;;;;;;;5033156;28;20035;-47
2023/05/22 03:25:31;;;;;;;3.72;2.83;;;;;;;;;;5067794;28;20107;-47
2023/05/22 03:27:57;;;;;;;4.43;2.92;;;;;;;;;;5067519;28;20721;-47
2023/05/22 03:30:24;;;;;;;5.72;3.45;;;;;;;;;;5067935;28;20111;-47
2023/05/22 03:32:51;;;;;;;4.22;2.60;;;;;;;;;;5064177;28;20040;-47
2023/05/22 03:35:18;;;;;;;9.32;3.17;;;;;;;;;;5069997;28;20469;-47
2023/05/22 03:37:48;;;;;;;4.30;2.72;;;;;;;;;;5073338;28;20028;-47
2023/05/22 03:40:14;;;;;;;8.00;3.03;;;;;;;;;;5074822;28;20028;-47
2023/05/22 03:42:40;;;;;;;6.95;2.65;;;;;;;;;;5074376;28;20123;-47
2023/05/22 03:45:06;;;;;;;5.60;2.80;;;;;;;;;;5073809;28;20119;-49
2023/05/22 03:47:33;;;;;;;4.32;3.13;;;;;;;;;;5072169;28;20366;-47
2023/05/22 03:49:59;;;;;;;3.22;2.92;;;;;;;;;;5090104;28;20040;-47
2023/05/22 03:52:25;;;;;;;4.40;3.00;;;;;;;;;;5066699;28;20028;-47
2023/05/22 03:54:52;;;;;;;5.40;3.08;;;;;;;;;;5075096;28;20085;-47
2023/05/22 03:57:18;;;;;;;3.60;2.45;;;;;;;;;;5074598;28;20036;-48
2023/05/22 03:59:45;;;;;;;4.18;2.88;;;;;;;;;;5074207;28;20045;-46
2023/05/22 04:02:15;;;;;;;4.90;3.22;;;;;;;;;;5074553;28;20024;-47
2023/05/22 04:04:45;;;;;;;5.03;3.08;;;;;;;;;;5073839;28;20024;-46
2023/05/22 04:07:11;;;;;;;3.92;2.60;;;;;;;;;;5074673;28;20056;-46
2023/05/22 04:09:37;;;;;;;5.07;3.22;;;;;;;;;;5075062;28;20039;-46
2023/05/22 04:12:04;;;;;;;4.70;2.78;;;;;;;;;;5074143;28;20024;-46
2023/05/22 04:14:31;;;;;;;5.40;3.05;;;;;;;;;;5073935;28;20399;-46
2023/05/22 04:16:57;;;;;;;5.65;2.83;;;15.20;99.90;;;;;;5068977;28;20033;-46
2023/05/22 04:19:23;;;;;;;5.82;2.97;;;15.40;99.90;;;;;;5074806;28;20452;-46
2023/05/22 04:21:49;;;;;;;3.78;2.40;;;15.50;99.90;;;;;;5066661;28;20029;-47
2023/05/22 04:24:15;;;;;;;4.28;2.53;;;15.30;99.90;;;;;;5088865;28;20033;-46
2023/05/22 04:26:41;;;;;;;3.83;2.63;;;15.20;99.90;;;;;;5068964;28;20020;-46
2023/05/22 04:29:09;;;;;;;4.57;2.88;;;15.30;99.90;;;;;;5068674;28;20119;-48
2023/05/22 04:31:35;;;;;;;5.25;2.80;;;15.30;99.90;;;;;;5069056;28;20415;-48
2023/05/22 04:34:01;;;;;;;3.60;2.30;;;15.50;99.90;;;;;;5070700;28;20072;-47
2023/05/22 04:36:27;;;;;;;5.57;3.03;;;15.50;99.90;;;;;;5073805;28;20444;-48
2023/05/22 04:38:54;;;;;;;4.75;2.88;;;15.60;99.90;;;;;;5067120;28;20016;-47
2023/05/22 04:41:25;;;;;;;5.30;3.08;;;15.60;99.90;;;;;;5067576;28;20439;-47
2023/05/22 04:43:51;;;;;;;3.78;2.92;;;15.60;99.90;;;;;;5038456;28;20045;-47
2023/05/22 04:46:18;;;;;;;4.10;2.63;;;15.60;99.90;;;;;;5071793;28;20028;-48
2023/05/22 04:48:44;;;;;;;3.70;2.20;;;15.70;99.90;;;;;;5069830;28;20433;-48
2023/05/22 04:51:11;;;;;;;4.78;2.60;;;15.70;99.90;;;;;;5071255;28;20036;-47
2023/05/22 04:53:37;;;;;;;5.10;3.03;;;15.80;99.90;;;;;;5068575;28;20041;-47
2023/05/22 04:56:04;;;;;;;5.97;2.88;;;15.80;99.90;;;;;;5073728;28;20047;-47
2023/05/22 04:58:29;;;;;;;3.85;2.85;;;16.10;99.90;;;;;;5046353;28;20388;-47
2023/05/22 05:00:56;;;;;;;5.18;2.83;;;16.30;99.90;;;;;;5072430;28;20063;-47
2023/05/22 05:03:24;;;;;;;4.82;2.90;;;16.40;99.90;;;;;;5066492;28;20043;-48
2023/05/22 05:05:50;;;;;;;3.97;2.92;;;16.30;99.90;;;;;;5066841;28;20515;-47
2023/05/22 05:08:16;;;;;;;4.85;2.95;;;16.30;99.90;;;;;;5073304;28;20535;-47
2023/05/22 05:10:42;;;;;;;4.82;3.47;;;16.50;99.90;;;;;;5088065;28;20128;-47
2023/05/22 05:13:08;;;;;;;7.95;2.80;;;16.40;99.90;;;;;;5021006;28;20043;-48
2023/05/22 05:15:34;;;;;;;5.25;2.92;;;16.50;99.90;;;;;;5070920;28;20376;-47
2023/05/22 05:18:00;;;;;;;3.58;2.72;;;16.40;99.90;;;;;;5071250;28;20041;-45
2023/05/22 05:20:26;;;;;;;4.00;2.38;;;16.50;99.90;;;;;;5073793;28;20031;-47
2023/05/22 05:22:52;;;;;;;4.18;2.58;;;16.50;99.90;;;;;;5067236;28;20067;-46
2023/05/22 05:25:17;;;;;;;5.80;3.00;;;16.50;99.90;;;;;;5073791;28;20059;-46
2023/05/22 05:27:43;;;;;;;4.18;2.50;;;16.60;99.90;;;;;;5071857;28;20032;-47
2023/05/22 05:30:09;;;;;;;3.70;2.50;;;16.80;99.90;;;;;;5072381;28;20051;-46
2023/05/22 05:32:35;;;;;;;3.25;2.83;;;17.10;99.90;;;;;;5021199;28;20032;-46
2023/05/22 05:35:01;;;;;;;4.13;2.88;;;17.40;99.90;;;;;;5072209;28;20145;-46
2023/05/22 05:37:27;;;;;;;4.20;3.22;;;17.60;99.90;;;;;;5067467;28;20127;-46
2023/05/22 05:39:52;;;;;;;4.68;2.65;;;17.40;99.90;;;;;;5086816;28;20037;-46
2023/05/22 05:42:18;;;;;;;4.43;2.95;;;17.40;99.90;;;;;;5073394;28;20024;-46
2023/05/22 05:44:44;;;;;;;3.92;2.80;;;17.50;99.90;;;;;;5072330;28;20028;-47
2023/05/22 05:47:10;;;;;;;6.07;2.92;;;;;;;;;;5067466;28;20037;-47
2023/05/22 05:49:36;;;;;;;6.20;2.58;;;18.10;99.90;;;;;;5070198;28;20120;-46
2023/05/22 05:52:02;;;;;;;5.32;3.00;;;18.30;99.90;;;;;;5068521;28;20108;-46
2023/05/22 05:54:28;;;;;;;4.28;3.10;;;18.40;99.90;;;;;;5087980;28;20067;-44
2023/05/22 05:56:54;;;;;;;5.00;3.08;;;18.20;99.90;;;;;;5072349;28;20480;-46
2023/05/22 05:59:19;;;;;;;3.88;2.72;;;18.50;99.90;;;;;;5072307;28;20450;-47
2023/05/22 06:01:46;;;;;;;4.88;2.90;;;18.60;99.90;;;;;;5072295;28;20024;-44
2023/05/22 06:04:12;;;;;;;3.95;2.53;;;18.70;99.90;;;;;;5071401;28;20107;-46
2023/05/22 06:06:38;;;;;;;3.40;2.40;;;18.60;99.90;;;;;;5070870;28;20036;-46
2023/05/22 06:09:08;;;;;;;5.53;2.67;;;18.50;99.90;;;;;;5072073;28;20478;-46
2023/05/22 06:11:34;;;;;;;3.83;2.47;;;18.80;99.90;;;;;;5072086;28;20040;-46
2023/05/22 06:14:04;;;;;;;4.22;2.47;;;19.10;99.90;;;;;;5071789;28;20036;-46
2023/05/22 06:16:30;;;;;;;4.50;2.53;;;19.30;99.90;;;;;;5072306;28;20036;-45
2023/05/22 06:18:58;;;;;;;3.05;2.17;;;;;;;;;;5036535;28;20131;-46
2023/05/22 06:21:24;;;;;;;4.40;2.38;;;;;;;;;;5068697;28;20037;-46
2023/05/22 06:23:50;;;;;;;2.70;1.88;;;19.80;99.90;;;;;;5047869;28;20044;-47
2023/05/22 06:26:16;;;;;;;3.47;2.25;;;19.60;99.90;;;;;;5066797;28;20032;-46
2023/05/22 06:28:42;;;;;;;3.42;2.30;;;19.90;99.90;;;;;;5064307;28;20142;-46
2023/05/22 06:31:08;;;;;;;3.20;2.40;;;20.00;99.90;;;;;;5069693;28;20068;-46
2023/05/22 06:33:35;;;;;;;3.15;2.22;;;20.10;99.90;;;;;;5067602;28;20117;-46
2023/05/22 06:36:02;;;;;;;3.22;2.60;;;20.00;99.90;;;;;;5061320;28;20033;-46
2023/05/22 06:38:28;;;;;;;3.67;2.83;;;20.30;99.90;;;;;;5026262;28;20072;-46
2023/05/22 06:40:54;;;;;;;3.88;2.80;;;;;;;;;;5065661;28;20098;-46
2023/05/22 06:43:20;;;;;;;5.30;3.15;;;;;;;;;;5052399;28;20068;-46
2023/05/22 06:45:46;;;;;;;4.85;2.28;;;;;;;;;;4989997;28;20037;-47
2023/05/22 06:48:12;;;;;;;3.42;2.20;;;20.70;99.90;;;;;;5052468;28;20067;-46
2023/05/22 06:50:38;;;;;;;5.90;2.55;;;20.70;99.90;;;;;;5071368;28;20037;-45
2023/05/22 06:53:03;;;;;;;2.80;2.03;;;20.70;99.90;;;;;;5087081;28;20488;-47
2023/05/22 06:55:29;;;;;;;2.13;1.92;;;;;;;;;;5071479;28;20102;-47
2023/05/22 06:57:55;;;;;;;3.50;2.33;;;21.20;99.90;;;;;;5065836;28;20116;-47
2023/05/22 07:00:21;;;;;;;2.90;2.08;;;21.30;99.90;;;;;;5071424;28;20137;-46
2023/05/22 07:02:47;;;;;;;3.40;2.33;;;21.50;99.90;;;;;;5068475;28;20048;-47
2023/05/22 07:05:13;;;;;;;3.85;2.70;;;;;;;;;;5068039;28;20040;-46
2023/05/22 07:07:38;;;;;;;3.35;2.47;;;21.80;99.90;;;;;;5072389;28;20040;-47
2023/05/22 07:10:05;;;;;;;3.78;2.50;;;;;;;;;;5073196;28;20492;-46
2023/05/22 07:12:30;;;;;;;3.60;2.20;;;22.10;99.90;;;;;;5073930;28;20040;-47
2023/05/22 07:14:58;;;;;;;2.72;2.15;;;;;;;;;;5074644;28;20036;-46
2023/05/22 07:17:25;;;;;;;4.03;2.42;;;;;;;;;;5049498;28;20044;-47
2023/05/22 07:19:50;;;;;;;2.92;2.13;;;22.60;99.90;;;;;;5075780;28;20131;-47
2023/05/22 07:22:17;;;;;;;2.90;2.08;;;;;;;;;;5090583;28;20044;-45
2023/05/22 07:24:43;;;;;;;3.58;2.10;;;;;;;;;;5075205;28;20380;-45
2023/05/22 07:27:10;;;;;;;3.55;1.77;;;22.80;99.90;;;;;;5075157;28;20039;-47
2023/05/22 07:29:36;;;;;;;3.83;2.22;;;22.80;99.90;;;;;;5070193;28;20032;-47
2023/05/22 07:32:02;;;;;;;3.15;2.47;;;22.90;99.90;;;;;;5074988;28;20039;-45
2023/05/22 07:34:31;;;;;;;3.03;1.95;;;23.00;99.90;;;;;;5074885;28;20036;-48
2023/05/22 07:36:57;;;;;;;3.00;2.17;;;;;;;;;;5071454;28;20125;-46
2023/05/22 07:39:23;;;;;;;3.33;2.22;;;23.10;99.90;;;;;;5071403;28;20040;-46
2023/05/22 07:41:49;;;;;;;4.72;2.20;;;23.30;99.90;;;;;;5074555;28;20020;-47
2023/05/22 07:44:15;;;;;;;4.57;2.30;;;23.20;99.90;;;;;;5075091;28;20032;-47
2023/05/22 07:46:41;;;;;;;3.08;2.00;;;23.40;99.90;;;;;;5075248;28;20035;-47
2023/05/22 07:49:07;;;;;;;4.32;2.33;;;;;;;;;;5072406;28;20035;-47
2023/05/22 07:51:33;;;;;;;4.20;2.28;;;;;;;;;;5075213;28;20044;-46
2023/05/22 07:53:59;;;;;;;4.25;2.05;;;;;;;;;;5074480;28;20025;-47
2023/05/22 07:56:26;;;;;;;2.53;1.90;;;;;;;;;;5074793;28;20028;-47
2023/05/22 07:58:52;;;;;;;2.72;1.98;;;;;;;;;;5073000;28;20627;-47
2023/05/22 08:01:18;;;;;;;4.03;2.20;;;24.60;99.90;;;;;;5089055;28;20047;-46
2023/05/22 08:03:44;;;;;;;3.25;2.00;;;;;;;;;;5074863;28;20033;-45
2023/05/22 08:06:10;;;;;;;2.42;2.08;;;;;;;;;;5074400;28;20025;-47
2023/05/22 08:08:36;;;;;;;3.28;2.10;;;;;;;;;;5075243;28;20036;-47
2023/05/22 08:11:02;;;;;;;3.80;3.00;;;;;;;;;;5071307;28;20040;-48
2023/05/22 08:13:28;;;;;;;3.28;2.30;;;;;;;;;;5074511;28;20040;-47
2023/05/22 08:15:55;;;;;;;3.30;1.80;;;;;;;;;;5072223;28;20064;-46
2023/05/22 08:18:21;;;;;;;6.70;2.20;;;24.90;99.90;;;;;;5074244;28;20024;-46
2023/05/22 08:20:47;;;;;;;2.70;1.92;;;24.90;99.90;;;;;;5073977;28;20032;-47
2023/05/22 08:23:12;;;;;;;3.65;2.40;;;24.70;99.90;;;;;;5074251;28;20028;-48
2023/05/22 08:25:38;;;;;;;3.78;1.77;;;24.60;99.90;;;;;;5069177;28;20029;-47
2023/05/22 08:28:05;;;;;;;2.95;2.13;;;24.40;99.90;;;;;;5074710;28;20484;-47
2023/05/22 08:30:30;;;;;;;2.67;1.85;;;24.50;99.90;;;;;;5071657;28;20032;-47
2023/05/22 08:32:56;;;;;;;4.40;2.20;;;24.30;99.90;;;;;;5069408;28;20150;-45
2023/05/22 08:35:22;;;;;;;6.95;2.33;;;24.50;99.90;;;;;;5072303;28;20468;-48
2023/05/22 08:37:48;;;;;;;3.65;2.15;;;24.90;99.90;;;;;;5074226;28;20021;-45
2023/05/22 08:40:14;;;;;;;3.55;2.25;;;25.10;99.90;;;;;;5072088;28;20040;-46
2023/05/22 08:42:40;;;;;;;2.70;2.05;;;;;;;;;;5073851;28;20068;-47
2023/05/22 08:45:06;;;;;;;4.35;2.47;;;25.60;99.90;;;;;;5073628;28;20035;-47
2023/05/22 08:47:35;;;;;;;3.10;2.20;;;;;;;;;;5019356;28;20048;-47
2023/05/22 08:50:02;;;;;;;2.78;2.03;;;25.80;99.90;;;;;;5068810;28;20059;-46
2023/05/22 08:52:49;;;;;;;3.35;2.60;;;25.70;99.90;;;;;;5064129;28;20029;-48
2023/05/22 08:55:15;;;;;;;3.90;2.40;;;25.80;99.90;;;;;;5071125;28;20091;-46
2023/05/22 08:57:42;;;;;;;4.45;2.28;;;25.80;99.90;;;;;;5069714;28;20068;-48
2023/05/22 09:00:08;;;;;;;2.67;2.00;;;25.90;99.90;;;;;;5071357;28;20041;-48
2023/05/22 09:02:35;;;;;;;2.55;2.00;;;25.80;99.90;;;;;;5043544;28;20040;-55
2023/05/22 09:05:04;;;;;;;3.80;1.95;;;26.00;99.90;;;;;;5072499;28;20126;-48
2023/05/22 09:07:29;;;;;;;3.05;1.98;;;26.10;99.90;;;;;;5064339;28;20385;-46
2023/05/22 09:09:56;;;;;;;3.25;2.30;;;25.90;99.90;;;;;;5071891;28;20043;-46
2023/05/22 09:12:21;;;;;;;3.65;2.22;;;25.60;99.90;;;;;;5072977;28;20033;-49
2023/05/22 09:14:48;;;;;;;3.55;2.30;;;25.90;99.90;;;;;;5072241;28;20044;-47
2023/05/22 09:17:15;;;;;;;3.72;2.33;;;26.10;99.90;;;;;;5052703;28;20089;-47
2023/05/22 09:19:44;;;;;;;2.92;1.95;;;26.40;99.90;;;;;;5066489;28;20041;-47
2023/05/22 09:22:10;;;;;;;2.53;1.80;;;26.10;99.90;;;;;;5072850;28;20491;-47
2023/05/22 09:24:41;;;;;;;3.22;2.00;;;26.00;99.90;;;;;;5082320;28;20097;-48
2023/05/22 09:27:07;;;;;;;2.25;1.70;;;26.10;99.90;;;;;;5067797;28;20052;-49
2023/05/22 09:29:51;;;;;;;2.50;2.00;;;26.20;99.90;;;;;;5068915;28;20033;-47
2023/05/22 09:32:17;;;;;;;3.17;1.88;;;26.00;99.90;;;;;;5063738;28;20392;-49
2023/05/22 09:34:45;;;;;;;3.55;2.30;;;26.00;99.90;;;;;;5065985;28;20047;-47
2023/05/22 09:37:14;;;;;;;2.92;2.05;;;26.10;99.90;;;;;;5073346;28;20105;-45
2023/05/22 09:39:44;;;;;;;3.65;2.35;;;26.60;99.90;;;;;;5066569;28;20029;-47
2023/05/22 09:42:13;;;;;;;4.40;2.40;;;26.40;99.90;;;;;;5072141;28;20037;-48
2023/05/22 09:44:41;;;;;;;2.53;1.98;;;26.90;99.90;;;;;;5087125;28;20499;-46
2023/05/22 09:47:08;;;;;;;4.90;2.08;;;26.80;99.90;;;;;;5070653;28;20494;-46
2023/05/22 09:49:42;;;;;;;2.15;1.70;;;26.80;99.90;;;;;;5071829;28;20434;-48
2023/05/22 09:52:08;;;;;;;3.35;2.08;;;26.80;99.90;;;;;;5071215;28;20561;-48
2023/05/22 09:54:38;;;;;;;2.63;1.70;;;27.50;99.90;;;;;;5071828;28;20178;-46
2023/05/22 09:57:08;;;;;;;2.55;1.88;;;27.50;99.90;;;;;;5071120;28;20029;-46
2023/05/22 09:59:38;;;;;;;3.08;2.30;;;27.90;99.90;;;;;;5064164;28;20059;-48
2023/05/22 10:02:05;;;;;;;2.53;1.83;;;27.90;99.90;;;;;;5052453;28;20182;-46
2023/05/22 10:04:32;;;;;;;3.13;1.90;;;28.00;99.90;;;;;;5068783;28;20039;-49
2023/05/22 10:07:02;;;;;;;2.78;1.90;;;28.30;99.90;;;;;;5068559;28;20036;-45
2023/05/22 10:09:33;;;;;;;4.45;2.22;;;28.50;99.90;;;;;;5069317;28;20047;-46
2023/05/22 10:12:03;;;;;;;3.63;2.10;;;;;;;;;;5065062;28;20040;-47
2023/05/22 10:14:29;;;;;;;3.63;2.40;;;29.10;99.90;;;;;;5068026;28;20540;-50
2023/05/22 10:16:56;;;;;;;2.72;2.10;;;28.90;99.90;;;;;;5068952;28;20116;-47
2023/05/22 10:19:25;;;;;;;4.18;2.22;;;28.60;99.90;;;;;;5067443;28;20076;-47
2023/05/22 10:21:53;;;;;;;4.20;2.20;;;28.50;99.90;;;;;;5069885;28;20035;-46
2023/05/22 10:24:19;;;;;;;3.03;2.13;;;28.60;99.90;;;;;;5066699;28;20044;-46
2023/05/22 10:26:46;;;;;;;3.25;2.35;;;28.40;99.90;;;;;;5053658;28;20049;-49
2023/05/22 10:29:14;;;;;;;2.92;2.03;;;;;;;;;;5066935;28;20508;-49
2023/05/22 10:32:32;;;;;;;3.80;1.98;;;28.60;99.90;;;;;;5066178;28;20033;-48
2023/05/22 10:35:21;;;;;;;2.60;2.10;;;28.40;99.90;;;;;;5000506;28;20064;-48
2023/05/22 10:37:53;;;;;;;2.67;2.13;;;28.00;99.60;;;;;;4988402;28;20038;-47
2023/05/22 10:40:34;;;;;;;3.53;2.35;;;28.30;99.90;;;;;;4997353;28;20397;-46
2023/05/22 10:43:01;;;;;;;2.70;2.08;;;28.30;99.60;;;;;;4985046;28;20030;-47
2023/05/22 10:45:30;;;;;;;4.07;2.20;;;28.30;99.90;;;;;;5019155;28;20084;-46
2023/05/22 10:48:03;;;;;;;3.22;2.20;;;28.10;99.90;;;;;;5024378;28;20030;-46
2023/05/22 10:50:29;;;;;;;2.25;2.05;;;28.40;99.90;;;;;;5022278;28;20129;-47
2023/05/22 10:53:22;;;;;;;4.60;2.78;;;28.70;98.90;;;;;;5015848;28;20033;-48
2023/05/22 10:55:52;;;;;;;4.18;2.47;;;29.10;99.70;;;;;;5016176;28;20030;-47
2023/05/22 10:58:29;;;;;;;3.28;2.70;;;29.30;99.20;;;;;;5017690;28;20179;-47
2023/05/22 11:01:07;;;;;;;4.90;2.30;;;29.10;99.90;;;;;;5014528;28;20517;-46
2023/05/22 11:03:52;;;;;;;2.83;1.90;;;;;;;;;;5001735;28;20077;-48
2023/05/22 11:06:36;;;;;;;3.47;2.25;;;;;;;;;;5010029;28;20053;-46
2023/05/22 11:09:18;;;;;;;4.95;2.47;;;;;;;;;;5057820;28;20416;-46
2023/05/22 11:11:45;;;;;;;3.40;2.60;;;;;;;;;;5071029;28;20480;-46
2023/05/22 11:14:14;;;;;;;2.50;1.88;;;28.60;97.00;;;;;;5075612;28;20030;-47
2023/05/22 11:16:40;;;;;;;2.97;2.15;;;28.70;97.70;;;;;;5072213;28;20505;-45
2023/05/22 11:19:10;;;;;;;3.13;2.08;;;28.80;97.40;;;;;;5071435;28;20041;-47
2023/05/22 11:21:46;;;;;;;5.53;2.60;;;28.90;98.30;;;;;;5071121;28;20032;-47
2023/05/22 11:24:14;;;;;;;3.42;2.72;;;29.10;98.00;;;;;;5066941;28;20094;-46
2023/05/22 11:26:43;;;;;;;4.03;2.58;;;28.90;98.30;;;;;;5070169;28;20032;-47
2023/05/22 11:29:10;;;;;;;3.25;2.20;;;;;;;;;;5065005;28;20479;-46
2023/05/22 11:31:36;;;;;;;3.15;2.53;;;30.10;98.70;;;;;;5072744;28;20101;-46
2023/05/22 11:34:02;;;;;;;3.10;2.10;;;;;;;;;;5068124;28;20040;-45
2023/05/22 11:36:28;;;;;;;3.65;2.20;;;29.70;97.00;;;;;;5073266;28;20052;-46
2023/05/22 11:39:00;;;;;;;2.80;2.28;;;29.60;96.70;;;;;;5066788;28;20115;-47
2023/05/22 11:41:31;;;;;;;2.45;1.90;;;29.70;97.20;;;;;;5064076;28;20043;-45
2023/05/22 11:43:57;;;;;;;2.23;1.83;;;;;;;;;;5073580;28;20056;-46
2023/05/22 11:46:24;;;;;;;3.03;2.22;;;29.80;95.40;;;;;;5062309;28;20070;-44
2023/05/22 11:48:51;;;;;;;4.00;2.05;;;;;;;;;;5074462;28;20736;-49
2023/05/22 11:51:20;;;;;;;3.00;2.05;;;29.70;95.60;;;;;;5088897;28;20067;-45
2023/05/22 11:53:46;;;;;;;3.75;2.10;;;29.50;99.90;;;;;;5064391;28;20131;-45
2023/05/22 11:56:13;;;;;;;3.67;2.50;;;;;;;;;;5067674;28;20456;-44
2023/05/22 11:58:38;;;;;;;2.92;2.17;;;30.00;96.10;;;;;;5088784;28;20047;-45
2023/05/22 12:01:05;;;;;;;2.70;2.25;;;30.10;96.40;;;;;;5071472;28;20036;-46
2023/05/22 12:03:31;;;;;;;3.65;2.38;;;29.90;96.40;;;;;;5038209;28;20040;-45
2023/05/22 12:05:57;;;;;;;2.65;2.25;;;29.80;95.80;;;;;;5074256;28;20024;-45
2023/05/22 12:08:24;;;;;;;3.78;2.33;;;;;;;;;;5074236;28;20039;-44
2023/05/22 12:10:51;;;;;;;2.88;2.35;;;30.60;95.80;;;;;;5073493;28;20032;-46
2023/05/22 12:13:36;;;;;;;2.65;2.22;;;;;;;;;;5039175;28;20064;-47
2023/05/22 12:16:02;;;;;;;3.15;2.33;;;;;;;;;;5064299;28;20036;-45
2023/05/22 12:18:37;;;;;;;4.25;2.47;;;;;;;;;;5089217;28;20125;-45
2023/05/22 12:21:05;;;;;;;5.05;2.40;;;;;;;;;;5056710;28;20049;-47
2023/05/22 12:23:31;;;;;;;2.85;2.40;;;;;;;;;;5074140;28;20028;-46
2023/05/22 12:25:57;;;;;;;3.17;2.30;;;;;;;;;;5068857;28;20102;-44
2023/05/22 12:28:24;;;;;;;3.80;2.50;;;;;;;;;;5074000;28;20040;-44
2023/05/22 12:30:55;;;;;;;3.53;2.25;;;;;;;;;;5073912;28;20042;-45
2023/05/22 12:33:25;;;;;;;5.45;2.33;;;;;;;;;;5068157;28;20068;-44
2023/05/22 12:35:51;;;;;;;3.47;2.75;;;;;;;;;;5072205;28;20103;-44
2023/05/22 12:38:21;;;;;;;3.70;2.50;;;;;;;;;;5071237;28;20460;-44
2023/05/22 12:40:47;;;;;;;2.75;2.40;;;;;;;;;;5073681;28;20036;-46
2023/05/22 12:43:13;;;;;;;3.63;2.42;;;;;;;;;;5071100;28;20060;-45
2023/05/22 12:45:42;;;;;;;3.05;2.33;;;;;;;;;;5073697;28;20054;-45
2023/05/22 12:48:08;;;;;;;4.95;2.65;;;;;;;;;;5073266;28;20021;-45
2023/05/22 12:50:35;;;;;;;2.60;2.08;;;;;;;;;;5073000;28;20024;-45
2023/05/22 12:53:01;;;;;;;6.78;2.50;;;;;;;;;;5063704;28;20037;-44
2023/05/22 12:55:27;;;;;;;3.60;2.28;;;;;;;;;;5069475;28;20037;-45
2023/05/22 12:57:53;;;;;;;3.33;2.47;;;;;;;;;;5088873;28;20075;-44
2023/05/22 13:00:20;;;;;;;3.40;2.17;;;;;;;;;;5072923;28;20052;-44
2023/05/22 13:02:46;;;;;;;2.80;2.13;;;;;;;;;;5037934;28;20059;-45
2023/05/22 13:05:12;;;;;;;4.20;2.25;;;;;;;;;;5070923;28;20037;-44
2023/05/22 13:07:38;;;;;;;1.90;1.80;;;;;;;;;;5073281;28;20025;-44
2023/05/22 13:10:05;;;;;;;3.63;2.42;;;;;;;;;;5068099;28;20377;-45
2023/05/22 13:12:31;;;;;;;;;;;;;;;;;;5071111;28;20072;-45
2023/05/22 13:14:57;;;;;;;;;;;;;;;;;;5073609;28;19958;-44
2023/05/22 13:17:23;;;;;;;3.75;2.75;;;;;;;;;;5072662;28;20408;-44
2023/05/22 13:19:50;;;;;;;3.17;2.40;;;;;;;;;;5087745;28;20071;-45
2023/05/22 13:22:17;;;;;;;3.75;2.80;;;;;;;;;;5072937;28;20036;-44
2023/05/22 13:24:43;;;;;;;3.78;2.30;;;;;;;;;;5073582;28;20028;-44
2023/05/22 13:27:09;;;;;;;3.33;2.45;;;;;;;;;;5066566;28;20033;-44
2023/05/22 13:29:35;;;;;;;3.70;2.80;;;;;;;;;;5067881;28;20028;-44
2023/05/22 13:32:02;;;;;;;2.88;2.58;;;;;;;;;;5066869;28;20505;-45
2023/05/22 13:34:28;;;;;;;2.80;2.20;;;;;;;;;;5069447;28;20056;-44